createdAt,value
2022-11-21T00:01:29.056Z,6.43
2022-11-21T00:04:12.837Z,6.53
2022-11-21T00:06:56.657Z,5.60
2022-11-21T00:09:40.475Z,6.80
2022-11-21T00:12:24.136Z,8.57
2022-11-21T00:15:08.501Z,5.30
2022-11-21T00:17:53.976Z,8.53
2022-11-21T00:20:37.825Z,6.07
2022-11-21T00:23:21.577Z,8.23
2022-11-21T00:26:07.297Z,7.17
2022-11-21T00:28:50.956Z,9.10
2022-11-21T00:31:34.692Z,8.77
2022-11-21T00:34:19.797Z,11.60
2022-11-21T00:37:03.483Z,8.87
2022-11-21T00:39:47.177Z,11.20
2022-11-21T00:42:30.961Z,10.63
2022-11-21T00:45:18.335Z,13.17
2022-11-21T00:48:05.315Z,9.17
2022-11-21T00:50:51.224Z,11.23
2022-11-21T00:53:35.392Z,11.00
2022-11-21T00:56:19.212Z,10.10
2022-11-21T00:59:03.414Z,12.67
2022-11-21T01:01:47.492Z,7.47
2022-11-21T01:04:32.465Z,10.57
2022-11-21T01:07:18.228Z,11.63
2022-11-21T01:10:02.268Z,11.47
2022-11-21T01:12:47.306Z,11.83
2022-11-21T01:15:31.276Z,12.50
2022-11-21T01:18:15.195Z,15.10
2022-11-21T01:21:01.163Z,13.40
2022-11-21T01:23:46.636Z,21.23
2022-11-21T01:26:33.025Z,16.43
2022-11-21T01:29:16.777Z,14.47
2022-11-21T01:44:16.298Z,16.37
2022-11-21T01:47:00.246Z,18.03
2022-11-21T01:49:45.929Z,18.90
2022-11-21T01:52:32.655Z,16.93
2022-11-21T01:55:16.594Z,16.53
2022-11-21T01:58:00.414Z,20.23
2022-11-21T02:00:48.609Z,15.80
2022-11-21T02:03:37.573Z,18.27
2022-11-21T02:06:22.015Z,18.07
2022-11-21T02:09:07.265Z,18.97
2022-11-21T02:11:56.009Z,14.03
2022-11-21T02:14:41.546Z,19.40
2022-11-21T02:17:27.508Z,19.27
2022-11-21T02:20:13.760Z,17.30
2022-11-21T02:23:07.131Z,17.53
2022-11-21T02:25:54.313Z,25.30
2022-11-21T02:28:38.610Z,19.80
2022-11-21T02:31:22.565Z,19.70
2022-11-21T02:34:06.803Z,26.03
2022-11-21T02:36:50.822Z,22.37
2022-11-21T02:39:38.408Z,21.93
2022-11-21T02:42:30.357Z,21.80
2022-11-21T02:45:17.838Z,20.67
2022-11-21T02:48:04.175Z,16.20
2022-11-21T02:50:48.995Z,20.50
2022-11-21T02:53:32.992Z,20.60
2022-11-21T02:56:17.237Z,21.33
2022-11-21T02:59:02.818Z,24.10
2022-11-21T03:01:46.665Z,21.20
2022-11-21T03:04:30.568Z,22.40
2022-11-21T03:07:14.854Z,22.67
2022-11-21T03:09:58.819Z,27.60
2022-11-21T03:12:44.054Z,24.27
2022-11-21T03:15:30.846Z,31.43
2022-11-21T03:18:14.875Z,22.43
2022-11-21T03:20:59.505Z,23.57
2022-11-21T03:23:43.396Z,27.33
2022-11-21T03:26:27.305Z,21.33
2022-11-21T03:29:11.227Z,18.47
2022-11-21T03:31:56.559Z,23.13
2022-11-21T03:34:40.512Z,23.10
2022-11-21T03:37:24.541Z,24.17
2022-11-21T03:40:09.739Z,28.50
2022-11-21T03:42:53.468Z,27.63
2022-11-21T03:45:37.365Z,29.47
2022-11-21T03:48:22.960Z,26.00
2022-11-21T03:51:06.923Z,27.10
2022-11-21T03:53:51.218Z,27.90
2022-11-21T03:56:35.000Z,23.87
2022-11-21T03:59:18.706Z,27.03
2022-11-21T04:02:02.493Z,33.10
2022-11-21T04:04:47.757Z,26.20
2022-11-21T04:07:31.751Z,24.30
2022-11-21T04:10:16.059Z,22.27
2022-11-21T04:12:59.761Z,25.13
2022-11-21T04:15:43.891Z,25.13
2022-11-21T04:18:28.070Z,30.73
2022-11-21T04:21:13.238Z,30.80
2022-11-21T04:23:57.202Z,22.30
2022-11-21T04:26:41.137Z,25.35
2022-11-21T04:29:25.055Z,33.17
2022-11-21T04:32:09.083Z,26.33
2022-11-21T04:34:53.045Z,27.50
2022-11-21T04:37:40.662Z,27.67
2022-11-21T04:40:24.624Z,26.97
2022-11-21T04:43:08.546Z,29.50
2022-11-21T04:45:52.653Z,22.15
2022-11-21T04:48:36.985Z,28.63
2022-11-21T04:51:21.047Z,20.23
2022-11-21T04:54:06.812Z,28.88
2022-11-21T04:56:50.867Z,29.17
2022-11-21T04:59:34.792Z,39.87
2022-11-21T05:02:18.797Z,30.07
2022-11-21T05:05:02.720Z,35.28
2022-11-21T05:07:46.733Z,31.63
2022-11-21T05:10:52.068Z,22.25
2022-11-21T05:13:34.958Z,31.83
2022-11-21T05:16:18.807Z,27.73
2022-11-21T05:19:02.795Z,34.33
2022-11-21T05:21:46.776Z,28.43
2022-11-21T05:24:30.875Z,31.90
2022-11-21T05:27:16.387Z,31.30
2022-11-21T05:30:00.353Z,27.55
2022-11-21T05:32:45.416Z,27.65
2022-11-21T05:35:29.365Z,36.07
2022-11-21T05:38:13.422Z,33.17
2022-11-21T05:40:57.253Z,28.05
2022-11-21T05:43:47.383Z,41.50
2022-11-21T05:46:31.373Z,32.10
2022-11-21T05:49:15.527Z,29.23
2022-11-21T05:51:59.494Z,28.85
2022-11-21T05:54:46.050Z,32.17
2022-11-21T05:57:30.268Z,25.08
2022-11-21T06:00:17.275Z,33.55
2022-11-21T06:03:18.901Z,22.00
2022-11-21T06:06:05.467Z,23.77
2022-11-21T06:08:49.373Z,27.65
2022-11-21T06:11:33.270Z,31.27
2022-11-21T06:14:17.222Z,24.40
2022-11-21T06:17:02.933Z,25.10
2022-11-21T06:19:46.891Z,28.05
2022-11-21T06:22:30.862Z,29.48
2022-11-21T06:25:14.979Z,19.95
2022-11-21T06:28:01.242Z,23.60
2022-11-21T06:30:46.422Z,25.02
2022-11-21T06:33:31.782Z,27.80
2022-11-21T06:36:18.019Z,23.73
2022-11-21T06:39:02.414Z,20.77
2022-11-21T06:41:51.190Z,23.25
2022-11-21T06:44:35.370Z,25.00
2022-11-21T06:47:19.296Z,28.05
2022-11-21T06:50:04.943Z,21.90
2022-11-21T06:52:48.614Z,26.03
2022-11-21T06:55:32.674Z,19.02
2022-11-21T06:58:16.544Z,26.70
2022-11-21T07:01:04.740Z,14.05
2022-11-21T07:03:48.700Z,20.95
2022-11-21T07:06:35.784Z,18.75
2022-11-21T07:09:33.255Z,16.70
2022-11-21T07:12:34.678Z,17.13
2022-11-21T07:15:18.534Z,21.50
2022-11-21T07:18:02.469Z,22.30
2022-11-21T07:20:46.796Z,16.45
2022-11-21T07:23:32.725Z,14.95
2022-11-21T07:26:16.645Z,25.05
2022-11-21T07:29:00.665Z,22.10
2022-11-21T07:31:44.459Z,17.92
2022-11-21T07:34:28.164Z,15.68
2022-11-21T07:37:11.898Z,20.20
2022-11-21T07:39:57.240Z,26.13
2022-11-21T07:42:41.228Z,21.92
2022-11-21T07:45:25.109Z,23.27
2022-11-21T07:48:09.402Z,21.95
2022-11-21T07:50:53.210Z,16.60
2022-11-21T07:53:37.066Z,19.70
2022-11-21T07:56:26.483Z,26.38
2022-11-21T07:59:10.517Z,22.92
2022-11-21T08:01:54.490Z,22.80
2022-11-21T08:04:38.212Z,20.23
2022-11-21T08:07:23.944Z,13.48
2022-11-21T08:10:08.519Z,14.68
2022-11-21T08:12:53.725Z,12.80
2022-11-21T08:15:37.921Z,17.73
2022-11-21T08:18:21.681Z,13.40
2022-11-21T08:21:06.206Z,17.77
2022-11-21T08:23:50.309Z,13.85
2022-11-21T08:26:34.110Z,16.13
2022-11-21T08:29:19.283Z,17.60
2022-11-21T08:32:03.505Z,20.10
2022-11-21T08:34:47.277Z,14.38
2022-11-21T08:37:31.193Z,19.65
2022-11-21T08:40:15.191Z,16.35
2022-11-21T08:42:59.343Z,18.88
2022-11-21T08:45:44.520Z,13.25
2022-11-21T08:48:28.190Z,21.45
2022-11-21T08:51:12.042Z,14.18
2022-11-21T08:53:55.858Z,35.45
2022-11-21T08:56:39.652Z,15.85
2022-11-21T08:59:23.383Z,17.10
2022-11-21T09:02:11.605Z,19.42
2022-11-21T09:04:55.565Z,14.52
2022-11-21T09:07:39.278Z,23.90
2022-11-21T09:10:23.005Z,15.90
2022-11-21T09:13:06.808Z,18.00
2022-11-21T09:16:08.179Z,18.10
2022-11-21T09:18:54.515Z,16.45
2022-11-21T09:21:38.199Z,22.60
2022-11-21T09:24:21.986Z,17.77
2022-11-21T09:27:05.788Z,20.05
2022-11-21T09:29:53.842Z,26.27
2022-11-21T09:32:38.163Z,21.92
2022-11-21T09:35:23.415Z,27.30
2022-11-21T09:38:07.707Z,23.00
2022-11-21T09:40:51.526Z,26.83
2022-11-21T09:43:56.690Z,21.70
2022-11-21T09:46:48.340Z,34.53
2022-11-21T09:49:39.472Z,25.63
2022-11-21T09:52:29.253Z,26.65
2022-11-21T09:55:24.833Z,15.68
2022-11-21T09:58:17.479Z,22.67
2022-11-21T10:01:01.526Z,26.00
2022-11-21T10:03:47.953Z,27.45
2022-11-21T10:06:33.919Z,19.80
2022-11-21T10:09:29.512Z,20.20
2022-11-21T10:12:40.870Z,25.20
2022-11-21T10:15:38.245Z,24.67
2022-11-21T10:18:50.746Z,28.77
2022-11-21T10:22:04.338Z,19.38
2022-11-21T10:24:57.795Z,23.30
2022-11-21T10:27:48.640Z,20.75
2022-11-21T10:30:32.506Z,29.65
2022-11-21T10:33:21.544Z,19.10
2022-11-21T10:36:13.820Z,25.35
2022-11-21T10:39:04.262Z,27.67
2022-11-21T10:41:55.978Z,22.55
2022-11-21T10:44:57.427Z,21.08
2022-11-21T10:47:41.197Z,21.60
2022-11-21T10:50:50.282Z,26.58
2022-11-21T10:53:51.773Z,25.48
2022-11-21T10:56:37.556Z,21.40
2022-11-21T10:59:30.522Z,27.60
2022-11-21T11:02:25.381Z,21.20
2022-11-21T11:05:21.536Z,27.42
2022-11-21T11:08:08.760Z,25.63
2022-11-21T11:11:08.632Z,17.20
2022-11-21T11:13:59.888Z,23.02
2022-11-21T11:16:48.432Z,18.35
2022-11-21T11:19:39.786Z,36.88
2022-11-21T11:22:30.163Z,47.28
2022-11-21T11:25:14.381Z,26.95
2022-11-21T11:28:03.958Z,26.98
2022-11-21T11:30:49.031Z,23.08
2022-11-21T11:33:36.773Z,27.60
2022-11-21T11:36:35.707Z,28.85
2022-11-21T11:39:28.851Z,18.35
2022-11-21T11:43:11.063Z,33.72
2022-11-21T11:46:24.824Z,22.88
2022-11-21T11:49:21.307Z,14.75
2022-11-21T11:52:07.994Z,21.50
2022-11-21T11:54:57.225Z,18.42
2022-11-21T11:57:42.680Z,16.90
2022-11-21T12:00:34.516Z,8.32
2022-11-21T12:03:22.748Z,18.00
2022-11-21T12:06:13.438Z,12.38
2022-11-21T12:09:03.280Z,13.95
2022-11-21T12:12:08.133Z,20.33
2022-11-21T12:15:19.057Z,27.92
2022-11-21T12:18:14.342Z,7.25
2022-11-21T12:21:06.235Z,6.60
2022-11-21T12:23:53.569Z,8.25
2022-11-21T12:26:52.179Z,7.85
2022-11-21T12:29:48.736Z,8.75
2022-11-21T12:32:47.168Z,10.25
2022-11-21T12:35:49.034Z,9.43
2022-11-21T12:38:58.723Z,9.60
2022-11-21T12:42:07.985Z,10.77
2022-11-21T12:45:05.879Z,10.25
2022-11-21T12:48:30.875Z,6.40
2022-11-21T12:51:46.895Z,6.43
2022-11-21T12:54:49.799Z,5.57
2022-11-21T12:57:48.001Z,6.13
2022-11-21T13:00:44.122Z,6.27
2022-11-21T13:03:41.033Z,4.20
2022-11-21T13:06:27.337Z,4.70
2022-11-21T13:09:16.535Z,3.73
2022-11-21T13:12:05.952Z,3.27
2022-11-21T13:14:55.964Z,3.33
2022-11-21T13:17:46.510Z,3.27
2022-11-21T13:20:34.145Z,3.23
2022-11-21T13:23:38.158Z,2.90
2022-11-21T13:26:53.578Z,3.03
2022-11-21T13:29:37.366Z,2.70
2022-11-21T13:32:41.702Z,3.03
2022-11-21T13:36:04.985Z,3.30
2022-11-21T13:39:22.293Z,2.80
2022-11-21T13:42:32.965Z,3.33
2022-11-21T13:45:38.958Z,3.23
2022-11-21T13:49:06.000Z,2.10
2022-11-21T13:51:54.789Z,1.90
2022-11-21T13:55:18.536Z,3.47
2022-11-21T13:58:15.330Z,2.40
2022-11-21T14:01:28.495Z,2.30
2022-11-21T14:04:58.299Z,2.60
2022-11-21T14:07:43.953Z,2.73
2022-11-21T14:10:34.376Z,2.30
2022-11-21T14:13:28.053Z,6.57
2022-11-21T14:16:25.132Z,1.83
2022-11-21T14:19:14.979Z,2.10
2022-11-21T14:22:01.703Z,1.90
2022-11-21T14:24:47.205Z,8.13
2022-11-21T14:27:34.151Z,3.90
2022-11-21T14:30:30.807Z,32.90
2022-11-21T14:33:33.143Z,7.50
2022-11-21T14:36:19.962Z,32.00
2022-11-21T14:42:15.877Z,39.17
2022-11-21T14:45:08.118Z,2.73
2022-11-21T14:47:53.528Z,1.93
2022-11-21T14:50:37.360Z,2.73
2022-11-21T14:53:21.291Z,3.07
2022-11-21T14:56:06.615Z,1.40
2022-11-21T14:58:51.742Z,2.00
2022-11-21T15:01:36.082Z,1.00
2022-11-21T15:04:28.467Z,29.97
2022-11-21T15:07:21.051Z,3.30
2022-11-21T15:13:15.448Z,1.90
2022-11-21T15:16:00.579Z,2.67
2022-11-21T15:18:44.460Z,2.70
2022-11-21T15:21:28.471Z,2.10
2022-11-21T15:24:20.440Z,4.23
2022-11-21T15:27:25.338Z,2.93
2022-11-21T15:30:27.025Z,3.90
2022-11-21T15:33:12.685Z,2.70
2022-11-21T15:35:57.973Z,5.30
2022-11-21T15:38:45.511Z,4.77
2022-11-21T15:41:31.088Z,7.93
2022-11-21T15:44:23.467Z,12.60
2022-11-21T15:47:10.359Z,6.17
2022-11-21T15:49:54.359Z,7.40
2022-11-21T15:52:46.029Z,5.00
2022-11-21T15:55:31.588Z,5.57
2022-11-21T15:58:17.503Z,2.80
2022-11-21T16:01:01.778Z,5.27
2022-11-21T16:03:49.498Z,3.20
2022-11-21T16:06:34.337Z,2.57
2022-11-21T16:09:18.148Z,3.20
2022-11-21T16:12:01.979Z,3.03
2022-11-21T16:14:46.937Z,4.73
2022-11-21T16:17:30.738Z,5.30
2022-11-21T16:20:16.132Z,3.90
2022-11-21T16:22:59.891Z,4.27
2022-11-21T16:25:55.942Z,2.80
2022-11-21T16:28:39.705Z,3.33
2022-11-21T16:31:25.459Z,3.33
2022-11-21T16:34:09.304Z,4.20
2022-11-21T16:36:55.747Z,4.57
2022-11-21T16:39:39.526Z,4.33
2022-11-21T16:42:23.219Z,3.50
2022-11-21T16:45:07.839Z,6.27
2022-11-21T16:47:51.579Z,4.60
2022-11-21T16:50:35.741Z,3.53
2022-11-21T16:53:22.217Z,3.70
2022-11-21T16:56:06.279Z,5.10
2022-11-21T16:58:50.294Z,4.20
2022-11-21T17:01:34.591Z,3.47
2022-11-21T17:04:18.904Z,4.10
2022-11-21T17:07:02.979Z,3.20
2022-11-21T17:09:48.240Z,5.70
2022-11-21T17:12:38.980Z,3.37
2022-11-21T17:15:22.941Z,3.70
2022-11-21T17:18:06.841Z,3.27
2022-11-21T17:20:50.663Z,3.93
2022-11-21T17:23:35.144Z,3.73
2022-11-21T17:26:22.078Z,5.03
2022-11-21T17:29:06.248Z,4.77
2022-11-21T17:31:51.900Z,4.20
2022-11-21T17:34:36.134Z,4.77
2022-11-21T17:37:20.120Z,5.93
2022-11-21T17:40:04.161Z,7.43
2022-11-21T17:42:49.293Z,3.60
2022-11-21T17:45:35.532Z,3.30
2022-11-21T17:48:19.407Z,4.00
2022-11-21T17:51:05.260Z,3.90
2022-11-21T17:53:50.337Z,3.80
2022-11-21T17:56:35.352Z,4.10
2022-11-21T17:59:20.480Z,4.00
2022-11-21T18:02:04.548Z,4.43
2022-11-21T18:04:48.902Z,5.60
2022-11-21T18:07:35.617Z,6.60
2022-11-21T18:10:42.054Z,5.63
2022-11-21T18:13:23.196Z,5.67
2022-11-21T18:16:10.912Z,5.20
2022-11-21T18:18:55.013Z,3.50
2022-11-21T18:21:38.997Z,2.80
2022-11-21T18:24:23.041Z,2.77
2022-11-21T18:27:06.857Z,4.97
2022-11-21T18:29:50.852Z,3.20
2022-11-21T18:32:36.046Z,3.20
2022-11-21T18:35:19.977Z,2.87
2022-11-21T18:38:03.795Z,4.50
2022-11-21T18:40:47.686Z,2.50
2022-11-21T18:43:31.589Z,4.23
2022-11-21T18:46:16.412Z,3.90
2022-11-21T18:49:05.875Z,7.73
2022-11-21T18:51:51.444Z,2.60
2022-11-21T18:54:35.695Z,3.13
2022-11-21T18:57:19.857Z,4.17
2022-11-21T19:00:05.057Z,3.60
2022-11-21T19:02:49.084Z,4.03
2022-11-21T19:05:34.416Z,3.50
2022-11-21T19:08:18.252Z,2.40
2022-11-21T19:11:04.116Z,3.37
2022-11-21T19:13:49.027Z,3.87
2022-11-21T19:16:34.503Z,3.07
2022-11-21T19:19:35.322Z,2.60
2022-11-21T19:22:21.161Z,2.37
2022-11-21T19:25:05.460Z,1.90
2022-11-21T19:27:49.378Z,1.63
2022-11-21T19:30:33.438Z,1.80
2022-11-21T19:33:17.428Z,1.70
2022-11-21T19:36:03.286Z,1.30
2022-11-21T19:38:51.249Z,1.47
2022-11-21T19:41:35.755Z,1.60
2022-11-21T19:44:20.058Z,1.87
2022-11-21T19:47:05.477Z,1.83
2022-11-21T19:49:49.462Z,1.53
2022-11-21T19:52:33.475Z,2.13
2022-11-21T19:55:18.954Z,2.13
2022-11-21T19:58:02.879Z,1.63
2022-11-21T20:00:47.090Z,1.90
2022-11-21T20:03:31.200Z,4.07
2022-11-21T20:06:17.447Z,2.37
2022-11-21T20:09:03.820Z,2.20
2022-11-21T20:11:51.212Z,2.30
2022-11-21T20:14:35.231Z,3.90
2022-11-21T20:17:19.215Z,2.30
2022-11-21T20:20:03.248Z,1.90
2022-11-21T20:22:47.757Z,2.37
2022-11-21T20:25:31.765Z,2.27
2022-11-21T20:28:17.098Z,2.53
2022-11-21T20:31:09.516Z,2.43
2022-11-21T20:36:56.355Z,2.00
2022-11-21T20:39:40.261Z,2.10
2022-11-21T20:42:24.230Z,1.23
2022-11-21T20:46:07.333Z,1.77
2022-11-21T20:48:19.934Z,2.00
2022-11-21T20:54:08.587Z,2.10
2022-11-21T20:56:52.643Z,1.97
2022-11-21T20:59:36.426Z,2.27
2022-11-21T21:02:21.578Z,1.70
2022-11-21T21:05:05.782Z,2.20
2022-11-21T21:07:49.540Z,1.93
2022-11-21T21:10:57.926Z,2.23
2022-11-21T21:13:37.175Z,3.80
2022-11-21T21:16:23.487Z,2.00
2022-11-21T21:19:08.635Z,2.20
2022-11-21T21:21:52.333Z,3.60
2022-11-21T21:24:36.114Z,2.47
2022-11-21T21:27:19.946Z,2.13
2022-11-21T21:30:03.989Z,3.10
2022-11-21T21:32:48.839Z,2.70
2022-11-21T21:35:37.267Z,2.23
2022-11-21T21:38:21.235Z,2.80
2022-11-21T21:41:05.508Z,2.83
2022-11-21T21:43:50.956Z,2.83
2022-11-21T21:46:34.974Z,3.07
2022-11-21T21:49:19.009Z,3.30
2022-11-21T21:52:04.649Z,3.10
2022-11-21T21:54:49.155Z,3.57
2022-11-21T21:57:33.178Z,3.27
2022-11-21T22:00:17.207Z,4.27
2022-11-21T22:03:03.095Z,3.53
2022-11-21T22:05:47.596Z,3.53
2022-11-21T22:08:34.400Z,3.97
2022-11-21T22:11:19.848Z,4.33
2022-11-21T22:14:06.229Z,4.57
2022-11-21T22:16:50.274Z,4.07
2022-11-21T22:19:34.255Z,4.87
2022-11-21T22:22:18.303Z,4.60
2022-11-21T22:25:03.557Z,4.90
2022-11-21T22:27:47.381Z,5.60
2022-11-21T22:30:31.078Z,4.57
2022-11-21T22:33:17.058Z,5.37
2022-11-21T22:36:01.976Z,5.33
2022-11-21T22:38:46.083Z,5.70
2022-11-21T22:41:31.553Z,5.87
2022-11-21T22:44:15.289Z,5.70
2022-11-21T22:46:59.761Z,5.70
2022-11-21T22:49:43.546Z,6.27
2022-11-21T22:52:27.457Z,6.27
2022-11-21T22:55:11.272Z,6.93
2022-11-21T22:57:58.579Z,8.27
2022-11-21T23:00:42.283Z,7.10
2022-11-21T23:03:26.024Z,7.33
2022-11-21T23:06:11.702Z,7.20
2022-11-21T23:08:57.722Z,6.73
2022-11-21T23:11:41.463Z,7.60
2022-11-21T23:14:26.755Z,7.73
2022-11-21T23:17:10.639Z,6.90
2022-11-21T23:19:54.469Z,7.77
2022-11-21T23:22:38.268Z,7.93
2022-11-21T23:25:22.028Z,8.30
2022-11-21T23:28:06.007Z,7.63
2022-11-21T23:30:51.796Z,8.30
2022-11-21T23:33:35.560Z,8.57
2022-11-21T23:36:19.366Z,8.60
2022-11-21T23:39:03.201Z,8.47
2022-11-21T23:41:46.830Z,10.43
2022-11-21T23:44:30.520Z,10.10
2022-11-21T23:47:15.650Z,10.20
2022-11-21T23:49:59.401Z,14.17
2022-11-21T23:52:43.158Z,11.30
2022-11-21T23:55:26.839Z,11.10
2022-11-21T23:58:10.689Z,11.67
